createdAt,value
2022-11-16T00:01:26.881Z,99521.21
2022-11-16T00:03:57.734Z,99519.55
2022-11-16T00:06:28.710Z,99509.30
2022-11-16T00:09:21.457Z,99492.23
2022-11-16T00:11:56.281Z,99500.56
2022-11-16T00:14:28.541Z,99498.66
2022-11-16T00:17:04.129Z,99503.38
2022-11-16T00:19:35.006Z,99486.48
2022-11-16T00:22:05.639Z,99497.66
2022-11-16T00:24:35.476Z,99498.92
2022-11-16T00:27:08.516Z,99500.24
2022-11-16T00:29:39.666Z,99494.02
2022-11-16T00:32:08.572Z,99488.35
2022-11-16T00:34:37.759Z,99478.40
2022-11-16T00:37:06.840Z,99475.88
2022-11-16T00:39:35.761Z,99473.38
2022-11-16T00:42:04.541Z,99468.38
2022-11-16T00:44:32.896Z,99466.09
2022-11-16T00:47:01.584Z,99463.56
2022-11-16T00:49:30.022Z,99460.23
2022-11-16T00:51:58.752Z,99460.91
2022-11-16T00:54:27.361Z,99460.83
2022-11-16T00:56:55.500Z,99467.48
2022-11-16T00:59:24.604Z,99468.54
2022-11-16T01:01:54.970Z,99470.65
2022-11-16T01:04:24.075Z,99472.20
2022-11-16T01:06:52.224Z,99477.98
2022-11-16T01:09:20.477Z,99479.14
2022-11-16T01:12:08.010Z,99480.38
2022-11-16T01:14:38.183Z,99482.73
2022-11-16T01:17:07.316Z,99483.20
2022-11-16T01:19:36.669Z,99474.83
2022-11-16T01:22:05.423Z,99466.88
2022-11-16T01:24:33.701Z,99461.96
2022-11-16T01:27:01.974Z,99455.29
2022-11-16T01:29:33.256Z,99450.01
2022-11-16T01:32:02.915Z,99450.46
2022-11-16T01:34:33.068Z,99427.14
2022-11-16T01:37:07.044Z,99446.98
2022-11-16T01:39:38.604Z,99447.54
2022-11-16T01:42:14.366Z,99450.02
2022-11-16T01:44:42.524Z,99449.66
2022-11-16T01:47:17.877Z,99452.86
2022-11-16T01:49:48.816Z,99456.39
2022-11-16T01:52:22.758Z,99457.94
2022-11-16T01:54:53.868Z,99456.64
2022-11-16T01:57:33.017Z,99455.08
2022-11-16T02:00:11.230Z,99450.92
2022-11-16T02:02:44.905Z,99449.02
2022-11-16T02:05:42.471Z,99446.72
2022-11-16T02:08:53.939Z,99441.02
2022-11-16T02:11:22.532Z,99437.98
2022-11-16T02:14:20.339Z,99437.45
2022-11-16T02:17:03.431Z,99425.85
2022-11-16T02:19:35.408Z,99420.12
2022-11-16T02:22:53.352Z,99417.83
2022-11-16T02:26:02.876Z,99411.61
2022-11-16T02:28:46.118Z,99405.77
2022-11-16T02:31:23.507Z,99403.39
2022-11-16T02:33:54.650Z,99405.01
2022-11-16T02:36:25.487Z,99398.48
2022-11-16T02:39:05.142Z,99399.01
2022-11-16T02:41:44.364Z,99399.59
2022-11-16T02:44:20.002Z,99396.73
2022-11-16T02:46:53.752Z,99398.98
2022-11-16T02:49:25.352Z,99398.23
2022-11-16T02:51:54.872Z,99395.73
2022-11-16T02:54:24.885Z,99396.25
2022-11-16T02:57:17.636Z,99401.30
2022-11-16T02:59:50.631Z,99397.52
2022-11-16T03:02:27.405Z,99394.75
2022-11-16T03:05:02.740Z,99394.67
2022-11-16T03:07:42.287Z,99394.00
2022-11-16T03:10:11.787Z,99390.58
2022-11-16T03:12:41.184Z,99388.55
2022-11-16T03:15:12.909Z,99387.40
2022-11-16T03:17:46.251Z,99388.52
2022-11-16T03:20:22.917Z,99394.14
2022-11-16T03:22:57.260Z,99395.52
2022-11-16T03:25:31.141Z,99396.91
2022-11-16T03:28:23.581Z,99397.02
2022-11-16T03:31:01.289Z,99394.76
2022-11-16T03:33:44.618Z,99402.91
2022-11-16T03:36:27.228Z,99401.05
2022-11-16T03:39:01.641Z,99395.52
2022-11-16T03:41:31.360Z,99390.83
2022-11-16T03:44:01.186Z,99383.89
2022-11-16T03:46:29.505Z,99383.36
2022-11-16T03:48:59.253Z,99376.40
2022-11-16T03:51:29.794Z,99375.54
2022-11-16T03:53:58.240Z,99376.10
2022-11-16T03:56:26.647Z,99370.38
2022-11-16T03:58:54.767Z,99368.90
2022-11-16T04:01:23.241Z,99368.79
2022-11-16T04:03:51.688Z,99358.84
2022-11-16T04:06:39.503Z,99363.44
2022-11-16T04:09:10.618Z,99354.79
2022-11-16T04:11:58.222Z,99350.98
2022-11-16T04:14:46.539Z,99357.05
2022-11-16T04:17:37.843Z,99362.70
2022-11-16T04:20:25.586Z,99360.97
2022-11-16T04:23:22.291Z,99375.25
2022-11-16T04:25:51.873Z,99376.29
2022-11-16T04:28:27.374Z,99372.44
2022-11-16T04:31:18.695Z,99369.25
2022-11-16T04:34:11.653Z,99368.13
2022-11-16T04:37:01.720Z,99365.07
2022-11-16T04:39:30.513Z,99361.26
2022-11-16T04:42:19.352Z,99360.46
2022-11-16T04:45:07.624Z,99363.05
2022-11-16T04:47:49.921Z,99367.29
2022-11-16T04:50:19.949Z,99362.46
2022-11-16T04:52:48.809Z,99365.30
2022-11-16T04:55:18.130Z,99361.15
2022-11-16T04:57:48.272Z,99360.78
2022-11-16T05:00:18.274Z,99361.95
2022-11-16T05:02:46.761Z,99356.92
2022-11-16T05:05:15.186Z,99348.02
2022-11-16T05:07:45.249Z,99353.98
2022-11-16T05:10:19.880Z,99351.17
2022-11-16T05:12:49.380Z,99349.70
2022-11-16T05:15:20.040Z,99347.78
2022-11-16T05:17:50.136Z,99350.11
2022-11-16T05:20:40.146Z,99352.69
2022-11-16T05:23:28.578Z,99345.77
2022-11-16T05:25:58.286Z,99334.28
2022-11-16T05:28:27.692Z,99340.59
2022-11-16T05:30:56.164Z,99345.15
2022-11-16T05:33:24.951Z,99347.43
2022-11-16T05:35:53.747Z,99350.01
2022-11-16T05:38:22.850Z,99350.98
2022-11-16T05:40:53.970Z,99351.69
2022-11-16T05:43:22.767Z,99349.80
2022-11-16T05:46:01.393Z,99344.86
2022-11-16T05:48:29.806Z,99342.62
2022-11-16T05:50:59.959Z,99341.12
2022-11-16T05:53:29.307Z,99338.91
2022-11-16T05:55:59.144Z,99337.38
2022-11-16T05:58:28.289Z,99333.38
2022-11-16T06:00:58.514Z,99328.12
2022-11-16T06:03:30.267Z,99329.73
2022-11-16T06:06:00.054Z,99328.27
2022-11-16T06:08:31.227Z,99332.73
2022-11-16T06:11:06.447Z,99330.27
2022-11-16T06:13:37.716Z,99325.04
2022-11-16T06:16:09.059Z,99331.33
2022-11-16T06:18:44.156Z,99328.05
2022-11-16T06:21:15.160Z,99323.88
2022-11-16T06:23:44.017Z,99319.84
2022-11-16T06:26:12.842Z,99319.22
2022-11-16T06:28:42.209Z,99317.36
2022-11-16T06:31:10.489Z,99319.27
2022-11-16T06:33:42.356Z,99317.83
2022-11-16T06:36:21.617Z,99316.67
2022-11-16T06:38:51.420Z,99314.18
2022-11-16T06:41:20.939Z,99309.34
2022-11-16T06:43:50.625Z,99308.20
2022-11-16T06:46:20.561Z,99307.30
2022-11-16T06:48:49.324Z,99308.39
2022-11-16T06:51:19.251Z,99312.89
2022-11-16T06:53:48.234Z,99309.41
2022-11-16T06:56:16.739Z,99310.54
2022-11-16T06:58:53.220Z,99309.35
2022-11-16T07:01:22.521Z,99311.42
2022-11-16T07:03:51.216Z,99310.04
2022-11-16T07:06:19.528Z,99311.29
2022-11-16T07:08:48.225Z,99313.82
2022-11-16T07:11:20.338Z,99314.02
2022-11-16T07:13:49.587Z,99311.22
2022-11-16T07:16:18.822Z,99312.80
2022-11-16T07:18:53.788Z,99317.02
2022-11-16T07:21:47.518Z,99315.38
2022-11-16T07:24:20.893Z,99314.03
2022-11-16T07:26:49.685Z,99313.23
2022-11-16T07:29:22.382Z,99311.25
2022-11-16T07:32:08.584Z,99305.04
2022-11-16T07:35:07.568Z,99301.05
2022-11-16T07:37:37.793Z,99303.77
2022-11-16T07:40:07.464Z,99301.58
2022-11-16T07:42:36.485Z,99299.39
2022-11-16T07:45:21.547Z,99303.67
2022-11-16T07:47:54.651Z,99305.96
2022-11-16T07:50:37.054Z,99307.13
2022-11-16T07:53:08.145Z,99307.80
2022-11-16T07:55:36.661Z,99305.89
2022-11-16T07:58:05.849Z,99305.65
2022-11-16T08:00:34.900Z,99307.88
2022-11-16T08:03:09.167Z,99315.59
2022-11-16T08:05:38.055Z,99317.21
2022-11-16T08:08:07.101Z,99320.04
2022-11-16T08:10:37.164Z,99321.18
2022-11-16T08:13:06.977Z,99322.60
2022-11-16T08:15:36.881Z,99319.90
2022-11-16T08:18:07.342Z,99320.21
2022-11-16T08:20:37.036Z,99325.63
2022-11-16T08:23:05.922Z,99321.63
2022-11-16T08:25:35.930Z,99322.50
2022-11-16T08:28:04.739Z,99318.12
2022-11-16T08:30:33.461Z,99326.31
2022-11-16T08:33:03.877Z,99329.82
2022-11-16T08:35:36.097Z,99334.80
2022-11-16T08:38:06.628Z,99338.20
2022-11-16T08:40:38.182Z,99339.05
2022-11-16T08:43:07.080Z,99339.03
2022-11-16T08:45:36.108Z,99338.67
2022-11-16T08:48:05.894Z,99335.86
2022-11-16T08:51:02.410Z,99330.41
2022-11-16T08:53:27.216Z,99336.30
2022-11-16T08:55:55.695Z,99339.45
2022-11-16T08:58:24.481Z,99344.41
2022-11-16T09:00:53.010Z,99342.42
2022-11-16T09:03:21.859Z,99341.43
2022-11-16T09:05:50.274Z,99340.83
2022-11-16T09:08:18.870Z,99340.32
2022-11-16T09:10:47.285Z,99344.14
2022-11-16T09:13:15.669Z,99347.06
2022-11-16T09:15:44.989Z,99351.34
2022-11-16T09:18:13.577Z,99352.68
2022-11-16T09:20:45.716Z,99353.67
2022-11-16T09:23:14.404Z,99352.79
2022-11-16T09:25:45.402Z,99355.36
2022-11-16T09:28:14.230Z,99351.73
2022-11-16T09:30:44.372Z,99352.90
2022-11-16T09:33:13.485Z,99348.48
2022-11-16T09:35:42.454Z,99346.46
2022-11-16T09:38:12.713Z,99340.89
2022-11-16T09:40:47.407Z,99336.85
2022-11-16T09:43:35.424Z,99331.87
2022-11-16T09:46:22.157Z,99321.47
2022-11-16T09:48:51.499Z,99318.48
2022-11-16T09:51:23.812Z,99321.92
2022-11-16T09:54:06.432Z,99317.44
2022-11-16T09:56:39.385Z,99312.92
2022-11-16T09:59:29.524Z,99309.35
2022-11-16T10:02:14.781Z,99309.98
2022-11-16T10:04:58.194Z,99305.05
2022-11-16T10:07:33.617Z,99305.45
2022-11-16T10:10:02.548Z,99303.36
2022-11-16T10:12:58.987Z,99305.30
2022-11-16T10:16:05.249Z,99296.95
2022-11-16T10:18:39.219Z,99292.34
2022-11-16T10:21:33.240Z,99290.86
2022-11-16T10:24:29.831Z,99292.89
2022-11-16T10:27:24.375Z,99290.59
2022-11-16T10:30:11.383Z,99290.70
2022-11-16T10:33:00.784Z,99288.17
2022-11-16T10:35:54.253Z,99267.41
2022-11-16T10:38:29.037Z,99285.98
2022-11-16T10:41:18.630Z,99286.58
2022-11-16T10:43:48.654Z,99290.35
2022-11-16T10:46:44.473Z,99291.07
2022-11-16T10:49:15.830Z,99288.39
2022-11-16T10:51:44.516Z,99288.77
2022-11-16T10:54:14.428Z,99291.63
2022-11-16T10:56:45.888Z,99290.07
2022-11-16T10:59:18.375Z,99285.29
2022-11-16T11:01:51.750Z,99278.65
2022-11-16T11:04:20.240Z,99271.77
2022-11-16T11:06:56.882Z,99271.02
2022-11-16T11:09:35.307Z,99272.27
2022-11-16T11:12:40.069Z,99269.91
2022-11-16T11:15:11.731Z,99267.13
2022-11-16T11:17:43.023Z,99270.98
2022-11-16T11:20:17.616Z,99267.20
2022-11-16T11:22:58.064Z,99273.56
2022-11-16T11:25:38.862Z,99274.83
2022-11-16T11:28:25.947Z,99277.73
2022-11-16T11:31:04.923Z,99275.73
2022-11-16T11:33:52.547Z,99269.11
2022-11-16T11:36:48.151Z,99266.85
2022-11-16T11:39:16.451Z,99260.75
2022-11-16T11:41:47.044Z,99258.79
2022-11-16T11:44:18.203Z,99253.98
2022-11-16T11:47:50.252Z,99250.92
2022-11-16T11:50:11.490Z,99253.52
2022-11-16T11:52:47.344Z,99252.29
2022-11-16T11:55:18.184Z,99249.45
2022-11-16T11:57:50.348Z,99242.34
2022-11-16T12:00:19.039Z,99237.48
2022-11-16T12:03:27.166Z,99237.41
2022-11-16T12:06:32.290Z,99233.55
2022-11-16T12:09:04.360Z,99233.20
2022-11-16T12:11:51.678Z,99223.11
2022-11-16T12:14:58.356Z,99217.81
2022-11-16T12:17:36.385Z,99210.17
2022-11-16T12:20:29.520Z,99222.25
2022-11-16T12:23:37.287Z,99227.86
2022-11-16T12:26:32.256Z,99225.06
2022-11-16T12:29:01.115Z,99221.09
2022-11-16T12:32:05.076Z,99215.01
2022-11-16T12:35:12.417Z,99222.61
2022-11-16T12:37:55.858Z,99221.85
2022-11-16T12:40:59.549Z,99220.21
2022-11-16T12:43:51.698Z,99217.27
2022-11-16T12:46:51.312Z,99212.92
2022-11-16T12:49:53.331Z,99214.90
2022-11-16T12:52:25.646Z,99210.17
2022-11-16T12:58:10.531Z,99215.24
2022-11-16T13:00:56.233Z,99217.02
2022-11-16T13:03:55.518Z,99219.65
2022-11-16T13:06:33.225Z,99218.14
2022-11-16T13:09:38.966Z,99217.88
2022-11-16T13:12:14.446Z,99221.13
2022-11-16T13:14:45.350Z,99224.30
2022-11-16T13:17:21.646Z,99226.80
2022-11-16T13:20:15.250Z,99229.57
2022-11-16T13:22:53.913Z,99232.13
2022-11-16T13:26:01.193Z,99231.14
2022-11-16T13:28:48.762Z,99236.96
2022-11-16T13:31:29.007Z,99242.59
2022-11-16T13:34:13.301Z,99243.55
2022-11-16T13:36:45.508Z,99243.56
2022-11-16T13:39:23.155Z,99246.50
2022-11-16T13:42:14.200Z,99233.73
2022-11-16T13:44:47.407Z,99238.77
2022-11-16T13:47:27.839Z,99239.40
2022-11-16T13:49:59.838Z,99233.76
2022-11-16T13:53:23.423Z,99228.85
2022-11-16T13:55:38.704Z,99227.54
2022-11-16T13:58:11.555Z,99221.29
2022-11-16T14:00:42.049Z,99233.09
2022-11-16T14:03:16.913Z,99226.45
2022-11-16T14:05:46.412Z,99227.16
2022-11-16T14:08:27.628Z,99228.28
2022-11-16T14:10:56.087Z,99225.68
2022-11-16T14:13:30.932Z,99224.14
2022-11-16T14:16:21.726Z,99220.08
2022-11-16T14:19:03.062Z,99215.08
2022-11-16T14:21:42.709Z,99216.50
2022-11-16T14:24:30.279Z,99212.03
2022-11-16T14:27:02.023Z,99213.89
2022-11-16T14:29:58.541Z,99214.14
2022-11-16T14:32:31.859Z,99209.73
2022-11-16T14:35:05.274Z,99205.60
2022-11-16T14:37:40.755Z,99208.51
2022-11-16T14:40:18.227Z,99208.58
2022-11-16T14:43:16.487Z,99206.12
2022-11-16T14:46:09.736Z,99204.89
2022-11-16T14:48:47.211Z,99203.29
2022-11-16T14:51:27.717Z,99204.45
2022-11-16T14:54:01.428Z,99205.55
2022-11-16T14:56:31.414Z,99206.04
2022-11-16T14:59:02.168Z,99204.25
2022-11-16T15:01:37.082Z,99203.42
2022-11-16T15:04:11.516Z,99203.05
2022-11-16T15:07:02.819Z,99203.36
2022-11-16T15:09:38.876Z,99204.75
2022-11-16T15:12:34.588Z,99203.69
2022-11-16T15:15:17.484Z,99202.85
2022-11-16T15:18:05.591Z,99206.30
2022-11-16T15:20:54.532Z,99203.97
2022-11-16T15:24:23.459Z,99203.70
2022-11-16T15:26:44.549Z,99208.09
2022-11-16T15:29:18.408Z,99198.45
2022-11-16T15:31:49.512Z,99199.20
2022-11-16T15:34:20.210Z,99194.95
2022-11-16T15:36:49.281Z,99186.85
2022-11-16T15:39:28.588Z,99189.48
2022-11-16T15:42:03.261Z,99187.57
2022-11-16T15:44:33.994Z,99189.39
2022-11-16T15:47:05.140Z,99189.74
2022-11-16T15:49:40.811Z,99192.40
2022-11-16T15:52:15.125Z,99195.89
2022-11-16T15:55:10.530Z,99192.32
2022-11-16T15:57:46.622Z,99190.74
2022-11-16T16:00:28.293Z,99188.20
2022-11-16T16:03:28.945Z,99186.48
2022-11-16T16:06:20.294Z,99192.80
2022-11-16T16:09:05.651Z,99194.31
2022-11-16T16:11:42.813Z,99194.83
2022-11-16T16:14:32.826Z,99198.55
2022-11-16T16:17:27.999Z,99196.34
2022-11-16T16:20:08.678Z,99189.08
2022-11-16T16:22:54.963Z,99192.02
2022-11-16T16:25:39.484Z,99195.66
2022-11-16T16:28:16.485Z,99199.31
2022-11-16T16:30:51.155Z,99201.33
2022-11-16T16:33:30.053Z,99200.45
2022-11-16T16:36:06.906Z,99198.09
2022-11-16T16:38:47.511Z,99200.46
2022-11-16T16:41:24.757Z,99195.75
2022-11-16T16:43:59.144Z,99196.02
2022-11-16T16:46:37.348Z,99194.11
2022-11-16T16:49:11.763Z,99197.52
2022-11-16T16:51:51.768Z,99178.41
2022-11-16T16:54:25.843Z,99192.92
2022-11-16T16:57:03.634Z,99194.23
2022-11-16T16:59:35.740Z,99191.45
2022-11-16T17:02:16.009Z,99192.79
2022-11-16T17:04:50.876Z,99193.87
2022-11-16T17:07:27.741Z,99194.47
2022-11-16T17:10:06.235Z,99194.42
2022-11-16T17:12:44.227Z,99193.59
2022-11-16T17:15:19.613Z,99193.98
2022-11-16T17:17:55.708Z,99197.12
2022-11-16T17:20:32.634Z,99200.38
2022-11-16T17:23:07.801Z,99199.58
2022-11-16T17:25:41.768Z,99199.05
2022-11-16T17:28:16.169Z,99198.57
2022-11-16T17:30:51.038Z,99196.81
2022-11-16T17:33:25.360Z,99200.02
2022-11-16T17:36:03.184Z,99201.47
2022-11-16T17:38:43.345Z,99198.46
2022-11-16T17:41:28.965Z,99199.89
2022-11-16T17:44:10.230Z,99203.76
2022-11-16T17:46:46.540Z,99207.45
2022-11-16T17:49:22.468Z,99210.59
2022-11-16T17:52:02.149Z,99211.67
2022-11-16T17:54:39.147Z,99211.75
2022-11-16T17:57:11.899Z,99212.11
2022-11-16T17:59:47.362Z,99215.55
2022-11-16T18:02:26.664Z,99216.23
2022-11-16T18:05:11.183Z,99213.69
2022-11-16T18:07:51.339Z,99214.11
2022-11-16T18:10:24.279Z,99210.93
2022-11-16T18:12:54.110Z,99210.48
2022-11-16T18:15:30.814Z,99206.77
2022-11-16T18:18:00.079Z,99208.17
2022-11-16T18:20:29.624Z,99212.42
2022-11-16T18:22:59.128Z,99213.92
2022-11-16T18:25:28.928Z,99216.15
2022-11-16T18:27:57.990Z,99194.45
2022-11-16T18:30:26.984Z,99210.16
2022-11-16T18:32:56.226Z,99207.81
2022-11-16T18:35:26.881Z,99206.06
2022-11-16T18:37:56.532Z,99203.98
2022-11-16T18:40:25.210Z,99202.19
2022-11-16T18:42:54.330Z,99202.24
2022-11-16T18:45:23.610Z,99201.12
2022-11-16T18:47:52.295Z,99198.45
2022-11-16T18:50:26.733Z,99197.36
2022-11-16T18:52:59.744Z,99195.69
2022-11-16T18:55:31.709Z,99192.15
2022-11-16T18:58:04.520Z,99190.45
2022-11-16T19:00:42.859Z,99187.33
2022-11-16T19:03:13.865Z,99182.29
2022-11-16T19:05:45.390Z,99182.84
2022-11-16T19:08:16.239Z,99179.52
2022-11-16T19:10:45.483Z,99183.33
2022-11-16T19:13:17.013Z,99180.19
2022-11-16T19:15:50.661Z,99183.39
2022-11-16T19:18:22.033Z,99182.41
2022-11-16T19:20:51.661Z,99184.83
2022-11-16T19:23:22.252Z,99186.23
2022-11-16T19:26:01.341Z,99188.52
2022-11-16T19:28:37.352Z,99192.76
2022-11-16T19:31:09.693Z,99195.53
2022-11-16T19:33:40.251Z,99198.76
2022-11-16T19:36:13.597Z,99199.52
2022-11-16T19:38:45.443Z,99199.47
2022-11-16T19:41:21.294Z,99198.69
2022-11-16T19:43:54.585Z,99197.41
2022-11-16T19:46:29.194Z,99194.05
2022-11-16T19:49:01.508Z,99189.05
2022-11-16T19:51:34.595Z,99186.04
2022-11-16T19:54:06.017Z,99184.55
2022-11-16T19:56:36.022Z,99185.89
2022-11-16T19:59:05.702Z,99179.55
2022-11-16T20:01:36.510Z,99182.16
2022-11-16T20:04:06.807Z,99180.13
2022-11-16T20:06:39.422Z,99185.05
2022-11-16T20:09:12.560Z,99189.81
2022-11-16T20:11:43.893Z,99186.67
2022-11-16T20:14:15.278Z,99190.44
2022-11-16T20:16:50.679Z,99190.25
2022-11-16T20:19:21.143Z,99193.70
2022-11-16T20:21:54.239Z,99196.20
2022-11-16T20:24:24.542Z,99194.91
2022-11-16T20:26:56.182Z,99190.52
2022-11-16T20:29:32.463Z,99188.92
2022-11-16T20:32:07.591Z,99188.76
2022-11-16T20:34:42.780Z,99179.80
2022-11-16T20:37:13.949Z,99187.83
2022-11-16T20:39:46.592Z,99185.21
2022-11-16T20:42:17.034Z,99192.45
2022-11-16T20:44:47.261Z,99191.23
2022-11-16T20:47:16.809Z,99178.43
2022-11-16T20:49:46.488Z,99194.11
2022-11-16T20:52:16.855Z,99195.98
2022-11-16T20:54:46.340Z,99197.92
2022-11-16T20:57:16.503Z,99201.99
2022-11-16T20:59:45.955Z,99197.74
2022-11-16T21:02:15.871Z,99196.23
2022-11-16T21:04:46.301Z,99196.40
2022-11-16T21:07:21.194Z,99196.20
2022-11-16T21:10:11.597Z,99200.83
2022-11-16T21:13:01.742Z,99196.64
2022-11-16T21:15:31.422Z,99181.02
2022-11-16T21:18:01.125Z,99192.95
2022-11-16T21:20:30.083Z,99191.67
2022-11-16T21:22:59.209Z,99190.37
2022-11-16T21:25:28.330Z,99192.15
2022-11-16T21:27:57.935Z,99188.73
2022-11-16T21:30:27.640Z,99195.98
2022-11-16T21:32:57.882Z,99194.44
2022-11-16T21:35:27.473Z,99191.61
2022-11-16T21:37:56.887Z,99192.02
2022-11-16T21:40:26.479Z,99188.20
2022-11-16T21:42:56.371Z,99169.31
2022-11-16T21:45:26.371Z,99185.02
2022-11-16T21:47:56.161Z,99191.52
2022-11-16T21:50:31.508Z,99190.70
2022-11-16T21:53:02.032Z,99195.05
2022-11-16T21:55:31.722Z,99192.98
2022-11-16T21:58:03.697Z,99194.52
2022-11-16T22:00:32.280Z,99196.00
2022-11-16T22:03:01.711Z,99199.32
2022-11-16T22:05:49.974Z,99200.66
2022-11-16T22:08:19.662Z,99200.62
2022-11-16T22:10:52.906Z,99203.23
2022-11-16T22:13:22.825Z,99203.84
2022-11-16T22:15:52.546Z,99202.84
2022-11-16T22:18:22.216Z,99198.55
2022-11-16T22:20:55.388Z,99199.31
2022-11-16T22:23:29.216Z,99203.66
2022-11-16T22:26:12.249Z,99184.95
2022-11-16T22:28:44.420Z,99206.64
2022-11-16T22:31:15.636Z,99210.55
2022-11-16T22:33:45.553Z,99212.69
2022-11-16T22:36:15.394Z,99215.95
2022-11-16T22:38:44.487Z,99218.87
2022-11-16T22:41:13.470Z,99221.36
2022-11-16T22:43:42.122Z,99215.02
2022-11-16T22:46:11.525Z,99219.90
2022-11-16T22:48:41.474Z,99217.91
2022-11-16T22:51:28.239Z,99218.46
2022-11-16T22:53:59.510Z,99216.41
2022-11-16T22:56:30.952Z,99218.62
2022-11-16T22:59:02.703Z,99215.16
2022-11-16T23:01:32.783Z,99215.23
2022-11-16T23:04:03.123Z,99212.27
2022-11-16T23:06:33.130Z,99211.08
2022-11-16T23:09:01.886Z,99207.86
2022-11-16T23:11:49.500Z,99204.88
2022-11-16T23:14:37.116Z,99201.48
2022-11-16T23:17:06.831Z,99196.58
2022-11-16T23:19:54.246Z,99197.87
2022-11-16T23:22:41.152Z,99195.40
2022-11-16T23:25:30.524Z,99196.02
2022-11-16T23:28:00.731Z,99196.92
2022-11-16T23:30:29.124Z,99194.59
2022-11-16T23:32:57.457Z,99193.09
2022-11-16T23:35:25.599Z,99190.60
2022-11-16T23:37:58.973Z,99189.14
2022-11-16T23:40:30.657Z,99190.27
2022-11-16T23:43:18.156Z,99184.75
2022-11-16T23:45:46.381Z,99192.16
2022-11-16T23:48:16.693Z,99184.24
2022-11-16T23:50:46.171Z,99176.10
2022-11-16T23:53:15.651Z,99178.55
2022-11-16T23:55:43.942Z,99174.59
2022-11-16T23:58:15.048Z,99172.52
